This is the latest recevied weather packets stored in our database for station/object CE3ETE-1. If no packets are shown the sender has not sent any weather packets the latest 10 day(s).
| Time | Temp. | Humidity | Pressure | Rain* | Wind** | Luminosity | Snow |
|---|---|---|---|---|---|---|---|
| 1777922400 | 20.56° C | 47% | 952.3 hPa | - | - | - | - |
| 1777908000 | 20° C | 43% | 954.6 hPa | - | - | - | - |
| 1777900799 | 20° C | 43% | 954.6 hPa | - | - | - | - |
| 1777898998 | 20° C | 44% | 954.6 hPa | - | - | - | - |
| 1777897200 | 20° C | 44% | 954.4 hPa | - | - | - | - |
| 1777895400 | 20° C | 43% | 954.3 hPa | - | - | - | - |
| 1777893600 | 20° C | 43% | 954.4 hPa | - | - | - | - |
| 1777891800 | 20° C | 43% | 954.2 hPa | - | - | - | - |
| 1777889999 | 20° C | 43% | 954.2 hPa | - | - | - | - |
| 1777886399 | 20° C | 43% | 953.9 hPa | - | - | - | - |
| 1777884599 | 20° C | 42% | 953.7 hPa | - | - | - | - |
| 1777882798 | 20° C | 42% | 953.8 hPa | - | - | - | - |
| 1777880998 | 20° C | 42% | 954.2 hPa | - | - | - | - |
| 1777879198 | 20° C | 42% | 954.4 hPa | - | - | - | - |
| 1777877397 | 20° C | 43% | 954.6 hPa | - | - | - | - |
| 1777875600 | 20° C | 43% | 954.7 hPa | - | - | - | - |
| 1777873800 | 20° C | 43% | 955.2 hPa | - | - | - | - |
| 1777871999 | 20° C | 44% | 955.7 hPa | - | - | - | - |
| 1777870199 | 20° C | 44% | 955.5 hPa | - | - | - | - |
| 1777868399 | 20.56° C | 44% | 955.6 hPa | - | - | - | - |
| 1777866599 | 20.56° C | 44% | 955.5 hPa | - | - | - | - |
| 1777839604 | 20.56° C | 50% | 954.4 hPa | - | - | - | - |
| 1777834196 | 20.56° C | 52% | 954.3 hPa | - | - | - | - |
| 1777826998 | 20.56° C | 52% | 955 hPa | - | - | - | - |
| 1777825198 | 20.56° C | 52% | 955.2 hPa | - | - | - | - |
* Rain since midnight (hover to see other rain measurements)
** Current wind speed in m/s (hover to see current wind gust speed)